Time;durP1;ratioP1;P1;durP2;ratioP2;P2;SDS_P1;SDS_P2;PMS_P1;PMS_P2;Temp;Humidity;BMP_temperature;BMP_pressure;BME280_temperature;BME280_humidity;BME280_pressure;Samples;Min_cycle;Max_cycle;Signal;HPM_P1;HPM_P2
2021/08/24 00:01:22;;;;;;;1999.90;999.90;;;16.90;99.90;;;;;;5080549;28;20452;-86
2021/08/24 00:03:49;;;;;;;1999.90;999.90;;;16.90;99.90;;;;;;5078632;28;20470;-85
2021/08/24 00:06:16;;;;;;;1999.90;999.90;;;16.80;99.90;;;;;;5087962;28;20513;-87
2021/08/24 00:08:43;;;;;;;1999.90;999.90;;;16.80;99.90;;;;;;5074094;28;20567;-86
2021/08/24 00:11:11;;;;;;;1999.90;999.90;;;16.80;99.90;;;;;;5084819;28;20454;-85
2021/08/24 00:13:39;;;;;;;1999.90;999.90;;;16.70;99.90;;;;;;5082158;28;20466;-86
2021/08/24 00:16:08;;;;;;;1999.90;999.90;;;16.70;99.90;;;;;;5076514;28;20548;-85
2021/08/24 00:18:34;;;;;;;1999.90;999.90;;;16.70;99.90;;;;;;5084824;28;20526;-86
2021/08/24 00:21:02;;;;;;;1999.90;999.90;;;16.60;99.90;;;;;;5079934;28;20490;-85
2021/08/24 00:23:30;;;;;;;1999.90;999.90;;;16.60;99.90;;;;;;5082397;28;20536;-86
2021/08/24 00:25:58;;;;;;;1999.90;999.90;;;16.70;99.90;;;;;;5078089;28;20526;-85
2021/08/24 00:28:25;;;;;;;1999.90;999.90;;;16.60;99.90;;;;;;5086048;28;20518;-87
2021/08/24 00:30:52;;;;;;;1999.90;999.90;;;16.60;99.90;;;;;;5080979;28;21013;-87
2021/08/24 00:33:21;;;;;;;1999.90;999.90;;;16.60;99.90;;;;;;5082360;28;20505;-86
2021/08/24 00:35:48;;;;;;;1999.90;999.90;;;16.50;99.90;;;;;;5081151;28;20519;-87
2021/08/24 00:38:19;;;;;;;1999.90;999.90;;;16.50;99.90;;;;;;5089354;28;20476;-85
2021/08/24 00:40:52;;;;;;;1999.90;999.90;;;16.60;99.90;;;;;;5077813;28;20453;-85
2021/08/24 00:43:19;;;;;;;1999.90;999.90;;;16.40;99.90;;;;;;5085738;28;20483;-86
2021/08/24 00:45:51;;;;;;;1999.90;999.90;;;16.50;99.90;;;;;;5086447;28;20473;-86
2021/08/24 00:48:22;;;;;;;1999.90;999.90;;;16.40;99.90;;;;;;5077338;28;20443;-85
2021/08/24 00:50:50;;;;;;;1999.90;999.90;;;16.40;99.90;;;;;;5088695;28;20533;-85
2021/08/24 00:53:21;;;;;;;1999.90;999.90;;;16.40;99.90;;;;;;5081798;28;20466;-85
2021/08/24 00:55:48;;;;;;;1999.90;999.90;;;16.40;99.90;;;;;;5081339;28;20534;-86
2021/08/24 00:58:17;;;;;;;1999.90;999.90;;;16.30;99.90;;;;;;5089464;28;20459;-86
2021/08/24 01:00:45;;;;;;;1999.90;999.90;;;16.30;99.90;;;;;;5077203;28;20464;-86
2021/08/24 01:03:16;;;;;;;1999.90;999.90;;;16.30;99.90;;;;;;5085788;28;20442;-86
2021/08/24 01:05:45;;;;;;;1999.90;999.90;;;16.20;99.90;;;;;;5085897;28;20517;-87
2021/08/24 01:08:19;;;;;;;1999.90;999.90;;;16.10;99.90;;;;;;5077788;28;20503;-86
2021/08/24 01:10:53;;;;;;;1999.90;999.90;;;16.10;99.90;;;;;;5078296;28;20461;-84
2021/08/24 01:13:31;;;;;;;1999.90;999.90;;;16.10;99.90;;;;;;5087572;28;20912;-86
2021/08/24 01:16:06;;;;;;;1999.90;999.90;;;16.00;99.90;;;;;;5084044;28;20442;-85
2021/08/24 01:18:41;;;;;;;1999.90;999.90;;;16.10;99.90;;;;;;5073206;28;20518;-86
2021/08/24 01:21:32;;;;;;;1999.90;999.90;;;16.10;99.90;;;;;;5082737;28;20459;-85
2021/08/24 01:24:04;;;;;;;1999.90;999.90;;;16.00;99.90;;;;;;5082195;28;20623;-86
2021/08/24 01:26:39;;;;;;;1999.90;999.90;;;16.00;99.90;;;;;;5070812;28;20444;-85
2021/08/24 01:29:42;;;;;;;1999.90;999.90;;;16.00;99.90;;;;;;5088168;28;20537;-85
2021/08/24 01:32:26;;;;;;;1999.90;999.90;;;15.90;99.90;;;;;;5082387;28;20452;-86
2021/08/24 01:35:10;;;;;;;1999.90;999.90;;;15.90;99.90;;;;;;5066480;28;20679;-85
2021/08/24 01:37:45;;;;;;;1999.90;999.90;;;15.90;99.90;;;;;;5069013;28;20428;-86
2021/08/24 01:40:15;;;;;;;1999.90;999.90;;;15.90;99.90;;;;;;5068942;28;20455;-85
2021/08/24 01:42:43;;;;;;;1999.90;999.90;;;15.80;99.90;;;;;;5068697;28;20478;-86
2021/08/24 01:45:17;;;;;;;1999.90;999.90;;;15.80;99.90;;;;;;5068329;28;20490;-84
2021/08/24 01:47:50;;;;;;;1999.90;999.90;;;15.70;99.90;;;;;;5075496;28;20438;-85
2021/08/24 01:50:21;;;;;;;1999.90;999.90;;;15.70;99.90;;;;;;5063515;28;20903;-85
2021/08/24 01:52:55;;;;;;;1999.90;999.90;;;15.70;99.90;;;;;;5059611;28;20458;-85
2021/08/24 01:55:25;;;;;;;1999.90;999.90;;;15.60;99.90;;;;;;5060201;28;20497;-85
2021/08/24 01:57:58;;;;;;;1999.90;999.90;;;15.60;99.90;;;;;;5059528;28;20456;-85
2021/08/24 02:00:26;;;;;;;1999.90;999.90;;;15.60;99.90;;;;;;5059670;28;20518;-85
2021/08/24 02:02:58;;;;;;;1999.90;999.90;;;15.50;99.90;;;;;;5058937;28;20466;-85
2021/08/24 02:05:30;;;;;;;1999.90;999.90;;;15.50;99.90;;;;;;5060064;28;20548;-85
2021/08/24 02:08:02;;;;;;;1999.90;999.90;;;15.40;99.90;;;;;;5069184;28;20449;-87
2021/08/24 02:10:29;;;;;;;1999.90;999.90;;;15.40;99.90;;;;;;5068813;28;20519;-85
2021/08/24 02:12:58;;;;;;;1999.90;999.90;;;15.30;99.90;;;;;;5068575;28;20452;-86
2021/08/24 02:15:33;;;;;;;1999.90;999.90;;;15.30;99.90;;;;;;5069091;28;20514;-85
2021/08/24 02:18:01;;;;;;;1999.90;999.90;;;15.30;99.90;;;;;;5069105;28;20461;-85
2021/08/24 02:20:34;;;;;;;1999.90;999.90;;;15.20;99.90;;;;;;5067963;28;20448;-85
2021/08/24 02:23:06;;;;;;;1999.90;999.90;;;15.10;99.90;;;;;;5067447;28;20456;-85
2021/08/24 02:25:39;;;;;;;1999.90;999.90;;;15.10;99.90;;;;;;5069692;28;20458;-86
2021/08/24 02:28:10;;;;;;;1999.90;999.90;;;15.10;99.90;;;;;;5068202;28;20484;-86
2021/08/24 02:30:43;;;;;;;1999.90;999.90;;;15.10;99.90;;;;;;5068304;28;20641;-85
2021/08/24 02:33:11;;;;;;;1999.90;999.90;;;15.00;99.90;;;;;;5068845;28;20451;-86
2021/08/24 02:35:40;;;;;;;1999.90;999.90;;;15.00;99.90;;;;;;5067520;28;20449;-85
2021/08/24 02:38:14;;;;;;;1999.90;999.90;;;15.00;99.90;;;;;;5068448;28;20716;-85
2021/08/24 02:40:47;;;;;;;1999.90;999.90;;;14.90;99.90;;;;;;5070110;28;20448;-85
2021/08/24 02:43:22;;;;;;;1999.90;999.90;;;14.90;99.90;;;;;;5069990;28;20517;-86
2021/08/24 02:45:57;;;;;;;1999.90;999.90;;;14.90;99.90;;;;;;5069881;28;20449;-86
2021/08/24 02:48:25;;;;;;;1999.90;999.90;;;14.80;99.90;;;;;;5075758;28;20471;-85
2021/08/24 02:50:53;;;;;;;1999.90;999.90;;;14.70;99.90;;;;;;5073469;28;20497;-86
2021/08/24 02:53:21;;;;;;;1999.90;999.90;;;14.70;99.90;;;;;;5072210;28;20460;-87
2021/08/24 02:55:48;;;;;;;1999.90;999.90;;;14.70;99.90;;;;;;5072399;28;20476;-86
2021/08/24 02:58:15;;;;;;;1999.90;999.90;;;14.70;99.90;;;;;;5072297;28;20464;-86
2021/08/24 03:00:43;;;;;;;1999.90;999.90;;;14.60;99.90;;;;;;5072037;28;20510;-87
2021/08/24 03:03:10;;;;;;;1999.90;999.90;;;14.60;99.90;;;;;;5071690;28;20482;-87
2021/08/24 03:05:37;;;;;;;1999.90;999.90;;;14.60;99.90;;;;;;5072261;28;20538;-85
2021/08/24 03:08:04;;;;;;;1999.90;999.90;;;14.60;99.90;;;;;;5072306;28;20475;-87
2021/08/24 03:10:35;;;;;;;1999.90;999.90;;;14.50;99.90;;;;;;5074160;28;20768;-85
2021/08/24 03:13:13;;;;;;;1999.90;999.90;;;14.50;99.90;;;;;;5067706;28;20450;-85
2021/08/24 03:15:45;;;;;;;1999.90;999.90;;;14.50;99.90;;;;;;5066273;28;20451;-85
2021/08/24 03:18:18;;;;;;;1999.90;999.90;;;14.50;99.90;;;;;;5066248;28;20459;-85
2021/08/24 03:20:47;;;;;;;1999.90;999.90;;;14.40;99.90;;;;;;5066017;28;20473;-85
2021/08/24 03:23:17;;;;;;;1999.90;999.90;;;14.40;99.90;;;;;;5081855;28;20440;-85
2021/08/24 03:25:47;;;;;;;1999.90;999.90;;;14.40;99.90;;;;;;5081547;28;20449;-85
2021/08/24 03:28:16;;;;;;;1999.90;999.90;;;14.40;99.90;;;;;;5091345;28;20447;-85
2021/08/24 03:30:43;;;;;;;1999.90;999.90;;;14.40;99.90;;;;;;5092270;28;20516;-85
2021/08/24 03:33:11;;;;;;;1999.90;999.90;;;14.40;99.90;;;;;;5084990;28;20439;-85
2021/08/24 03:35:38;;;;;;;1999.90;999.90;;;14.40;99.90;;;;;;5093538;28;20503;-85
2021/08/24 03:38:06;;;;;;;1999.90;999.90;;;14.40;99.90;;;;;;5093511;28;20444;-85
2021/08/24 03:40:34;;;;;;;1999.90;999.90;;;14.40;99.90;;;;;;5093303;28;20809;-87
2021/08/24 03:43:03;;;;;;;1999.90;999.90;;;14.40;99.90;;;;;;5093074;28;20469;-86
2021/08/24 03:45:29;;;;;;;1999.90;999.90;;;14.30;99.90;;;;;;5092482;28;20896;-85
2021/08/24 03:47:56;;;;;;;1999.90;999.90;;;14.30;99.90;;;;;;5089117;28;20826;-85
2021/08/24 03:50:24;;;;;;;1999.90;999.90;;;14.20;99.90;;;;;;5091314;28;20477;-85
2021/08/24 03:52:51;;;;;;;1999.90;999.90;;;14.20;99.90;;;;;;5092098;28;20514;-85
2021/08/24 03:55:19;;;;;;;1999.90;999.90;;;14.20;99.90;;;;;;5091791;28;20480;-85
2021/08/24 03:57:46;;;;;;;1999.90;999.90;;;14.10;99.90;;;;;;5090700;28;20446;-85
2021/08/24 04:00:15;;;;;;;1999.90;999.90;;;14.10;99.90;;;;;;5091634;28;20518;-85
2021/08/24 04:02:42;;;;;;;1999.90;999.90;;;14.00;99.90;;;;;;5092319;28;20484;-85
2021/08/24 04:05:10;;;;;;;1999.90;999.90;;;14.00;99.90;;;;;;5091507;28;20477;-85
2021/08/24 04:07:37;;;;;;;1999.90;999.90;;;14.00;99.90;;;;;;5091625;28;20967;-85
2021/08/24 04:10:04;;;;;;;1999.90;999.90;;;13.90;99.90;;;;;;5091430;28;20556;-85
2021/08/24 04:12:31;;;;;;;1999.90;999.90;;;13.90;99.90;;;;;;5090913;28;20462;-84
2021/08/24 04:14:58;;;;;;;1999.90;999.90;;;13.90;99.90;;;;;;5092440;28;20466;-86
2021/08/24 04:17:26;;;;;;;1999.90;999.90;;;13.90;99.90;;;;;;5093152;28;20518;-85
2021/08/24 04:19:53;;;;;;;1999.90;999.90;;;13.90;99.90;;;;;;5091619;28;21008;-85
2021/08/24 04:22:22;;;;;;;1999.90;999.90;;;13.90;99.90;;;;;;5092373;28;20458;-84
2021/08/24 04:24:49;;;;;;;1999.90;999.90;;;13.80;99.90;;;;;;5090760;28;20546;-85
2021/08/24 04:27:15;;;;;;;1999.90;999.90;;;13.80;99.90;;;;;;5089166;28;20447;-84
2021/08/24 04:29:42;;;;;;;1999.90;999.90;;;13.80;99.90;;;;;;5090111;28;20546;-85
2021/08/24 04:32:10;;;;;;;1999.90;999.90;;;13.80;99.90;;;;;;5091516;28;20453;-85
2021/08/24 04:34:39;;;;;;;1999.90;999.90;;;13.70;99.90;;;;;;5089216;28;20470;-86
2021/08/24 04:37:05;;;;;;;1999.90;999.90;;;13.70;99.90;;;;;;5089554;28;20538;-84
2021/08/24 04:39:32;;;;;;;1999.90;999.90;;;13.70;99.90;;;;;;5088436;28;20521;-84
2021/08/24 04:41:59;;;;;;;1999.90;999.90;;;13.70;99.90;;;;;;5090253;28;20552;-85
2021/08/24 04:44:26;;;;;;;1999.90;999.90;;;13.70;99.90;;;;;;5112369;22;20478;-84
2021/08/24 04:46:52;;;;;;;1999.90;999.90;;;13.70;99.90;;;;;;5099364;28;20453;-84
2021/08/24 04:49:21;;;;;;;1999.90;999.90;;;13.70;99.90;;;;;;5100391;28;20606;-85
2021/08/24 04:51:49;;;;;;;1999.90;999.90;;;13.70;99.90;;;;;;5101374;28;20900;-84
2021/08/24 04:54:16;;;;;;;1999.90;999.90;;;13.70;99.90;;;;;;5101768;28;20538;-84
2021/08/24 04:56:42;;;;;;;1999.90;999.90;;;13.70;99.90;;;;;;5085672;28;20465;-83
2021/08/24 04:59:09;;;;;;;1999.90;999.90;;;13.70;99.90;;;;;;5083163;28;20539;-83
2021/08/24 05:01:36;;;;;;;1999.90;999.90;;;13.70;99.90;;;;;;5083262;28;20443;-83
2021/08/24 05:04:03;;;;;;;1999.90;999.90;;;13.70;99.90;;;;;;5083723;28;20450;-83
2021/08/24 05:06:30;;;;;;;1999.90;999.90;;;13.70;99.90;;;;;;5081331;28;20477;-83
2021/08/24 05:08:59;;;;;;;1999.90;999.90;;;13.80;99.90;;;;;;5081660;28;20541;-83
2021/08/24 05:11:26;;;;;;;1999.90;999.90;;;13.80;99.90;;;;;;5081247;28;20514;-82
2021/08/24 05:13:52;;;;;;;1999.90;999.90;;;13.80;99.90;;;;;;5072979;28;20473;-82
2021/08/24 05:16:19;;;;;;;1999.90;999.90;;;13.80;99.90;;;;;;5074627;28;20851;-83
2021/08/24 05:18:46;;;;;;;1999.90;999.90;;;13.80;99.90;;;;;;5078317;28;20530;-83
2021/08/24 05:21:16;;;;;;;1999.90;999.90;;;13.90;99.90;;;;;;5075906;28;20484;-83
2021/08/24 05:23:43;;;;;;;1999.90;999.90;;;13.90;99.90;;;;;;5076743;28;20844;-83
2021/08/24 05:26:16;;;;;;;1999.90;999.90;;;13.90;99.90;;;;;;5071870;28;20985;-82
2021/08/24 05:28:43;;;;;;;1999.90;999.90;;;14.00;99.90;;;;;;5080247;28;20511;-83
2021/08/24 05:31:10;;;;;;;1999.90;999.90;;;14.10;99.90;;;;;;5080138;28;20494;-82
2021/08/24 05:33:37;;;;;;;1999.90;999.90;;;14.10;99.90;;;;;;5080411;28;20953;-83
2021/08/24 05:36:05;;;;;;;1999.90;999.90;;;14.20;99.90;;;;;;5080017;28;20471;-83
2021/08/24 05:38:33;;;;;;;1999.90;999.90;;;14.20;99.90;;;;;;5079839;28;20520;-83
2021/08/24 05:41:01;;;;;;;1999.90;999.90;;;14.30;99.90;;;;;;5080063;28;20447;-83
2021/08/24 05:43:29;;;;;;;1999.90;999.90;;;14.30;99.90;;;;;;5080016;28;20454;-84
2021/08/24 05:45:57;;;;;;;1999.90;999.90;;;14.40;99.90;;;;;;5079809;28;20469;-83
2021/08/24 05:48:26;;;;;;;1999.90;999.90;;;14.50;99.90;;;;;;5078824;28;20477;-84
2021/08/24 05:50:53;;;;;;;1999.90;999.90;;;14.50;99.90;;;;;;5077301;28;20481;-81
2021/08/24 05:53:19;;;;;;;1999.90;999.90;;;14.50;99.90;;;;;;5076839;28;20457;-80
2021/08/24 05:55:46;;;;;;;1999.90;999.90;;;14.50;99.90;;;;;;5077494;28;20459;-81
2021/08/24 05:58:13;;;;;;;1999.90;999.90;;;14.60;99.90;;;;;;5074234;28;20453;-81
2021/08/24 06:00:42;;;;;;;1999.90;999.90;;;14.60;99.90;;;;;;5077302;28;20450;-81
2021/08/24 06:03:09;;;;;;;1999.90;999.90;;;14.70;99.90;;;;;;5077041;28;20455;-80
2021/08/24 06:05:38;;;;;;;1999.90;999.90;;;14.80;99.90;;;;;;5074630;28;20476;-81
2021/08/24 06:08:06;;;;;;;1999.90;999.90;;;14.90;99.90;;;;;;5069376;28;20448;-80
2021/08/24 06:10:36;;;;;;;1999.90;999.90;;;14.90;99.90;;;;;;5069665;28;20940;-81
2021/08/24 06:13:03;;;;;;;1999.90;999.90;;;15.00;99.90;;;;;;5074359;28;20452;-80
2021/08/24 06:15:30;;;;;;;1999.90;999.90;;;15.10;99.90;;;;;;5076552;28;20467;-82
2021/08/24 06:18:00;;;;;;;1999.90;999.90;;;15.20;99.90;;;;;;5072451;28;20439;-81
2021/08/24 06:20:28;;;;;;;1999.90;999.90;;;15.30;99.90;;;;;;5076447;28;20901;-81
2021/08/24 06:22:55;;;;;;;1999.90;999.90;;;15.30;99.90;;;;;;5076651;28;20559;-80
2021/08/24 06:25:22;;;;;;;1999.90;999.90;;;15.20;99.90;;;;;;5076158;28;20484;-80
2021/08/24 06:27:49;;;;;;;1999.90;999.90;;;15.40;99.90;;;;;;5075862;28;20454;-80
2021/08/24 06:30:17;;;;;;;1999.90;999.90;;;15.40;99.90;;;;;;5076623;28;20488;-80
2021/08/24 06:32:47;;;;;;;1999.90;999.90;;;15.50;99.90;;;;;;5076366;28;20448;-81
2021/08/24 06:35:16;;;;;;;1999.90;999.90;;;15.60;99.90;;;;;;5076566;28;20554;-80
2021/08/24 06:37:43;;;;;;;1999.90;999.90;;;15.60;99.90;;;;;;5076285;28;20489;-81
2021/08/24 06:40:11;;;;;;;1999.90;999.90;;;15.70;99.90;;;;;;5076297;28;20442;-81
2021/08/24 06:42:41;;;;;;;1999.90;999.90;;;15.70;99.90;;;;;;5075983;28;20811;-80
2021/08/24 06:45:11;;;;;;;1999.90;999.90;;;15.70;99.90;;;;;;5075860;28;20514;-81
2021/08/24 06:47:38;;;;;;;1999.90;999.90;;;15.70;99.90;;;;;;5075263;28;20537;-81
2021/08/24 06:50:05;;;;;;;1999.90;999.90;;;15.70;99.90;;;;;;5075685;28;20453;-81
2021/08/24 06:52:34;;;;;;;1999.90;999.90;;;15.70;99.90;;;;;;5076096;28;20482;-81
2021/08/24 06:55:00;;;;;;;1999.90;999.90;;;15.80;99.90;;;;;;5075978;28;20468;-81
2021/08/24 06:57:27;;;;;;;1999.90;999.90;;;15.90;99.90;;;;;;5074967;28;20550;-80
2021/08/24 06:59:54;;;;;;;1999.90;999.90;;;15.80;99.90;;;;;;5075801;28;20515;-81
2021/08/24 07:02:21;;;;;;;1999.90;999.90;;;15.90;99.90;;;;;;5075923;28;20836;-81
2021/08/24 07:04:48;;;;;;;1999.90;999.90;;;16.00;99.90;;;;;;5076024;28;20470;-81
2021/08/24 07:07:15;;;;;;;1999.90;999.90;;;16.00;99.90;;;;;;5075750;28;20445;-80
2021/08/24 07:09:43;;;;;;;1999.90;999.90;;;16.20;99.90;;;;;;5075952;28;20950;-81
2021/08/24 07:12:10;;;;;;;1999.90;999.90;;;16.20;99.90;;;;;;5073121;28;20487;-80
2021/08/24 07:14:37;;;;;;;1999.90;999.90;;;16.20;99.90;;;;;;5073933;28;21167;-81
2021/08/24 07:17:04;;;;;;;1999.90;999.90;;;16.30;99.90;;;;;;5066658;28;20462;-81
2021/08/24 07:19:31;;;;;;;1999.90;999.90;;;16.40;99.90;;;;;;5069505;28;20905;-80
2021/08/24 07:21:58;;;;;;;1999.90;999.90;;;16.30;99.90;;;;;;5073330;28;20536;-81
2021/08/24 07:24:25;;;;;;;1999.90;999.90;;;16.50;99.90;;;;;;5066870;28;20455;-81
2021/08/24 07:26:53;;;;;;;1999.90;999.90;;;16.60;99.90;;;;;;5063618;28;20459;-80
2021/08/24 07:29:20;;;;;;;1999.90;999.90;;;16.70;99.90;;;;;;5065717;28;20452;-79
2021/08/24 07:31:47;;;;;;;1999.90;999.90;;;16.70;99.90;;;;;;5072324;28;20487;-80
2021/08/24 07:34:13;;;;;;;1999.90;999.90;;;16.80;99.90;;;;;;5075778;28;20544;-81
2021/08/24 07:36:41;;;;;;;1999.90;999.90;;;16.90;99.90;;;;;;5075216;28;20476;-81
2021/08/24 07:39:07;;;;;;;1999.90;999.90;;;17.00;99.90;;;;;;5075549;28;20983;-83
2021/08/24 07:41:34;;;;;;;1999.90;999.90;;;17.10;99.90;;;;;;5075322;28;20955;-81
2021/08/24 07:44:03;;;;;;;1999.90;999.90;;;17.20;99.90;;;;;;5075086;28;20460;-81
2021/08/24 07:46:30;;;;;;;1999.90;999.90;;;17.30;99.90;;;;;;5069240;28;20495;-81
2021/08/24 07:48:57;;;;;;;1999.90;999.90;;;17.40;99.90;;;;;;5067516;28;20461;-81
2021/08/24 07:51:23;;;;;;;1999.90;999.90;;;17.50;99.90;;;;;;5067846;28;21054;-81
2021/08/24 07:53:51;;;;;;;1999.90;999.90;;;17.50;99.90;;;;;;5075072;28;20453;-81
2021/08/24 07:56:20;;;;;;;1999.90;999.90;;;17.50;99.90;;;;;;5074236;28;20463;-81
2021/08/24 07:58:46;;;;;;;1999.90;999.90;;;17.70;99.90;;;;;;5070469;28;20456;-82
2021/08/24 08:01:15;;;;;;;1999.90;999.90;;;17.70;99.90;;;;;;5072040;28;20454;-81
2021/08/24 08:03:41;;;;;;;1999.90;999.90;;;17.90;99.90;;;;;;5068466;28;20462;-81
2021/08/24 08:06:08;;;;;;;1999.90;999.90;;;17.90;99.90;;;;;;5070640;28;20929;-80
2021/08/24 08:08:35;;;;;;;1999.90;999.90;;;18.00;99.90;;;;;;5071528;28;20468;-81
2021/08/24 08:11:02;;;;;;;1999.90;999.90;;;18.10;99.90;;;;;;5064623;28;20485;-80
2021/08/24 08:13:30;;;;;;;1999.90;999.90;;;18.20;99.90;;;;;;5066482;28;20464;-80
2021/08/24 08:15:57;;;;;;;1999.90;999.90;;;18.30;99.90;;;;;;5074995;28;20903;-80
2021/08/24 08:18:25;;;;;;;1999.90;999.90;;;18.50;99.90;;;;;;5066660;28;20838;-80
2021/08/24 08:20:58;;;;;;;1999.90;999.90;;;18.60;99.90;;;;;;5058570;28;20957;-80
2021/08/24 08:23:25;;;;;;;1999.90;999.90;;;18.80;99.90;;;;;;5071138;28;20457;-80
2021/08/24 08:25:52;;;;;;;1999.90;999.90;;;19.00;99.90;;;;;;5076034;28;20479;-81
2021/08/24 08:28:19;;;;;;;1999.90;999.90;;;19.00;99.90;;;;;;5077855;28;20459;-80
2021/08/24 08:30:47;;;;;;;1999.90;999.90;;;19.20;99.90;;;;;;5077602;28;20476;-80
2021/08/24 08:33:14;;;;;;;1999.90;999.90;;;19.30;99.90;;;;;;5072180;28;20551;-79
2021/08/24 08:35:43;;;;;;;1999.90;999.90;;;19.50;99.90;;;;;;5069788;28;20472;-80
2021/08/24 08:38:10;;;;;;;1999.90;999.90;;;19.60;99.90;;;;;;5066946;28;20557;-79
2021/08/24 08:40:49;;;;;;;1999.90;999.90;;;19.70;99.90;;;;;;5075426;28;20465;-80
2021/08/24 08:43:28;;;;;;;1999.90;999.90;;;19.70;99.90;;;;;;5076057;28;20444;-83
2021/08/24 08:46:01;;;;;;;1999.90;999.90;;;19.80;99.90;;;;;;5076116;28;20490;-81
2021/08/24 08:48:38;;;;;;;1999.90;999.90;;;19.80;99.90;;;;;;5075959;28;20443;-81
2021/08/24 08:51:24;;;;;;;1999.90;999.90;;;20.10;99.90;;;;;;5076873;28;20496;-81
2021/08/24 08:53:57;;;;;;;1999.90;999.90;;;20.30;99.90;;;;;;5076323;28;20454;-80
2021/08/24 08:56:31;;;;;;;1999.90;999.90;;;20.40;99.90;;;;;;5079053;28;20481;-79
2021/08/24 08:59:05;;;;;;;1999.90;999.90;;;20.50;99.90;;;;;;5079831;28;20461;-81
2021/08/24 09:01:37;;;;;;;1999.90;999.90;;;20.50;99.90;;;;;;5078628;28;20438;-81
2021/08/24 09:04:16;;;;;;;1999.90;999.90;;;20.70;99.90;;;;;;5077460;28;20451;-80
2021/08/24 09:06:46;;;;;;;1999.90;999.90;;;20.90;99.90;;;;;;5075980;28;20483;-80
2021/08/24 09:09:13;;;;;;;1999.90;999.90;;;21.20;99.90;;;;;;5075490;28;20451;-80
2021/08/24 09:11:45;;;;;;;1999.90;999.90;;;21.30;99.90;;;;;;5075286;28;20848;-80
2021/08/24 09:14:19;;;;;;;1999.90;999.90;;;21.60;99.90;;;;;;5075464;28;20975;-79
2021/08/24 09:16:51;;;;;;;1999.90;999.90;;;21.70;99.90;;;;;;5081299;28;20451;-82
2021/08/24 09:19:25;;;;;;;1999.90;999.90;;;21.80;99.90;;;;;;5083041;28;20451;-81
2021/08/24 09:21:53;;;;;;;1999.90;999.90;;;21.90;99.90;;;;;;5079479;28;20458;-83
2021/08/24 09:24:24;;;;;;;1999.90;999.90;;;22.10;99.90;;;;;;5078161;28;20502;-82
2021/08/24 09:26:55;;;;;;;1999.90;999.90;;;22.40;99.90;;;;;;5077871;28;20469;-81
2021/08/24 09:29:26;;;;;;;1999.90;999.90;;;22.70;99.90;;;;;;5078699;28;20972;-81
2021/08/24 09:31:54;;;;;;;1999.90;999.90;;;23.00;99.90;;;;;;5078301;28;20939;-81
2021/08/24 09:34:26;;;;;;;1999.90;999.90;;;23.20;99.90;;;;;;5078334;28;20827;-81
2021/08/24 09:36:54;;;;;;;1999.90;999.90;;;23.50;99.90;;;;;;5077328;28;20465;-82
2021/08/24 09:39:51;;;;;;;1999.90;999.90;;;24.00;99.90;;;;;;5077954;28;20474;-82
2021/08/24 09:42:28;;;;;;;1999.90;999.90;;;24.60;99.90;;;;;;5078678;28;20484;-82
2021/08/24 09:44:56;;;;;;;1999.90;999.90;;;25.00;99.90;;;;;;5078562;28;20475;-81
2021/08/24 09:47:24;;;;;;;1999.90;999.90;;;25.30;99.90;;;;;;5078658;28;20473;-82
2021/08/24 09:49:58;;;;;;;1999.90;999.90;;;25.30;99.90;;;;;;5077602;28;20463;-81
2021/08/24 09:52:30;;;;;;;1999.90;999.90;;;24.40;99.90;;;;;;5078471;28;20497;-82
2021/08/24 09:55:01;;;;;;;1999.90;999.90;;;24.80;99.90;;;;;;5061159;28;20471;-81
2021/08/24 09:57:30;;;;;;;1999.90;999.90;;;24.80;99.90;;;;;;5078540;28;20939;-81
2021/08/24 10:00:00;;;;;;;1999.90;999.90;;;24.50;99.90;;;;;;5077888;28;20451;-82
2021/08/24 10:02:35;;;;;;;1999.90;999.90;;;24.50;99.90;;;;;;5078379;28;20623;-82
2021/08/24 10:05:03;;;;;;;1999.90;999.90;;;24.50;99.90;;;;;;5078544;28;20848;-81
2021/08/24 10:07:38;;;;;;;1999.90;999.90;;;24.70;99.90;;;;;;5077442;28;20489;-81
2021/08/24 10:10:19;;;;;;;1999.90;999.90;;;24.70;99.90;;;;;;5077726;28;20456;-82
2021/08/24 10:12:51;;;;;;;1999.90;999.90;;;25.00;99.90;;;;;;5078119;28;20479;-81
2021/08/24 10:15:29;;;;;;;1999.90;999.90;;;25.20;99.90;;;;;;5078210;28;21078;-82
2021/08/24 10:18:03;;;;;;;1999.90;999.90;;;25.00;99.90;;;;;;5077781;28;20451;-81
2021/08/24 10:20:32;;;;;;;1999.90;999.90;;;25.10;99.90;;;;;;5078078;28;20443;-81
2021/08/24 10:23:05;;;;;;;1999.90;999.90;;;25.10;99.90;;;;;;5078508;28;20473;-82
2021/08/24 10:25:43;;;;;;;1999.90;999.90;;;25.30;99.90;;;;;;5078404;28;20499;-81
2021/08/24 10:28:14;;;;;;;1999.90;999.90;;;25.50;99.90;;;;;;5078202;28;20537;-82
2021/08/24 10:30:45;;;;;;;1999.90;999.90;;;25.60;99.90;;;;;;5078037;28;20438;-82
2021/08/24 10:33:33;;;;;;;1999.90;999.90;;;25.70;99.90;;;;;;5078344;28;20845;-83
2021/08/24 10:36:07;;;;;;;1999.90;999.90;;;25.80;99.90;;;;;;5070737;28;20541;-82
2021/08/24 10:38:45;;;;;;;1999.90;999.90;;;25.80;99.90;;;;;;5077507;28;20443;-83
2021/08/24 10:41:22;;;;;;;1999.90;999.90;;;26.00;99.90;;;;;;5077961;28;20457;-82
2021/08/24 10:43:52;;;;;;;1999.90;999.90;;;25.90;99.90;;;;;;5078603;28;21035;-82
2021/08/24 10:46:20;;;;;;;1999.90;999.90;;;26.10;99.90;;;;;;5129216;22;20485;-87
2021/08/24 10:48:47;;;;;;;1999.90;999.90;;;26.40;99.90;;;;;;5107317;28;20446;-87
2021/08/24 10:51:24;;;;;;;1999.90;999.90;;;26.40;99.90;;;;;;5105574;28;20448;-84
2021/08/24 10:54:20;;;;;;;1999.90;999.90;;;26.50;99.90;;;;;;5105670;28;20442;-86
2021/08/24 10:56:51;;;;;;;1999.90;999.90;;;26.60;99.90;;;;;;5102876;28;20468;-85
2021/08/24 10:59:29;;;;;;;1999.90;999.90;;;26.70;99.90;;;;;;5105619;28;20460;-84
2021/08/24 11:02:03;;;;;;;1999.90;999.90;;;26.80;99.90;;;;;;5106114;28;20430;-84
2021/08/24 11:04:51;;;;;;;1999.90;999.90;;;27.10;99.90;;;;;;5103146;28;20450;-84
2021/08/24 11:07:32;;;;;;;1999.90;999.90;;;27.50;99.90;;;;;;5100850;28;20480;-84
2021/08/24 11:10:12;;;;;;;1999.90;999.90;;;27.70;99.90;;;;;;5101700;28;20971;-83
2021/08/24 11:12:48;;;;;;;1999.90;999.90;;;27.60;99.90;;;;;;5100353;28;20488;-85
2021/08/24 11:15:29;;;;;;;1999.90;999.90;;;27.60;99.90;;;;;;5100171;28;20483;-85
2021/08/24 11:18:02;;;;;;;1999.90;999.90;;;27.60;99.90;;;;;;5100443;28;20541;-84
2021/08/24 11:20:39;;;;;;;1999.90;999.90;;;27.60;98.20;;;;;;5099475;28;20525;-84
2021/08/24 11:23:16;;;;;;;1999.90;999.90;;;27.60;99.90;;;;;;5099998;28;20450;-85
2021/08/24 11:25:48;;;;;;;1999.90;999.90;;;27.20;97.50;;;;;;5098373;28;20473;-85
2021/08/24 11:28:25;;;;;;;1999.90;999.90;;;27.10;99.90;;;;;;5098188;28;20457;-85
2021/08/24 11:30:58;;;;;;;1999.90;999.90;;;27.10;99.90;;;;;;5097832;28;20467;-85
2021/08/24 11:33:28;;;;;;;1999.90;999.90;;;27.10;98.90;;;;;;5096871;28;20477;-85
2021/08/24 11:36:00;;;;;;;1999.90;999.90;;;27.30;99.90;;;;;;5097127;28;20552;-85
2021/08/24 11:38:31;;;;;;;1999.90;999.90;;;27.60;99.90;;;;;;5099888;28;20441;-84
2021/08/24 11:41:04;;;;;;;1999.90;999.90;;;27.70;99.90;;;;;;5098483;28;20839;-85
2021/08/24 11:43:36;;;;;;;1999.90;999.90;;;27.60;99.30;;;;;;5097614;28;20441;-84
2021/08/24 11:46:09;;;;;;;1999.90;999.90;;;27.90;99.90;;;;;;5097487;28;20481;-85
2021/08/24 11:48:42;;;;;;;1999.90;999.90;;;28.00;99.90;;;;;;5099858;28;21017;-83
2021/08/24 11:51:16;;;;;;;1999.90;999.90;;;28.00;99.90;;;;;;5102076;28;20464;-85
2021/08/24 11:53:49;;;;;;;1999.90;999.90;;;28.00;99.90;;;;;;5100331;28;20477;-85
2021/08/24 11:56:36;;;;;;;1999.90;999.90;;;27.80;99.90;;;;;;5099390;28;20473;-83
2021/08/24 11:59:08;;;;;;;1999.90;999.90;;;27.90;99.90;;;;;;5099321;28;20477;-84
2021/08/24 12:01:35;;;;;;;1999.90;999.90;;;28.40;99.90;;;;;;5099881;28;20537;-84
2021/08/24 12:04:05;;;;;;;1999.90;999.90;;;28.40;99.90;;;;;;5098164;28;20816;-84
2021/08/24 12:06:37;;;;;;;1999.90;999.90;;;28.50;96.90;;;;;;5107491;28;20496;-86
2021/08/24 12:09:06;;;;;;;1999.90;999.90;;;28.90;97.00;;;;;;5112088;28;20456;-85
2021/08/24 12:11:44;;;;;;;1999.90;999.90;;;28.90;96.10;;;;;;5107355;28;20439;-85
2021/08/24 12:14:33;;;;;;;1999.90;999.90;;;28.90;98.00;;;;;;5107777;28;20482;-84